Impacts TAF Board
For situational awareness. Not to be used for flight planning purposes.
IDs:

KDTW - Detroit Metro/Wayne, MI, US

Issued at 1452 UTC 21 Nov 2018
Updated at 1453 UTC 21 Nov 2018
Potential Impact None Slight Moderate High
Time<<22/03Z 22/04Z 22/05Z 22/06Z 22/07Z 22/08Z 22/09Z 22/10Z 22/11Z 22/12Z 22/13Z 22/14Z 22/15Z>>
Type PRVL PRVL PRVL PRVL PRVL PRVL PRVL PRVL PRVL PRVL PRVL PRVL PRVL
VIS >6 >6 >6 >6 >6 >6 >6 >6 >6 >6 >6 >6 >6
CIG -- -- -- -- 250 250 250 250 250 250 250 80 80
Cover SCT SCT SCT SCT BKN BKN BKN BKN BKN BKN BKN OVC OVC
FltCat VFR VFR VFR VFR VFR VFR VFR VFR VFR VFR VFR VFR VFR
WX -- -- -- -- -- -- -- -- -- -- -- -- --
WDir 360 360 360 360 40 40 40 40 40 40 40 120 120
WSpd 10 10 10 10 5 5 5 5 5 5 5 5 5
WGst -- -- -- -- -- -- -- -- -- -- -- -- --
Raw TAF
KDTW 211452Z 2115/2218 31013KT P6SM OVC030
  TEMPO 2115/2117 6SM -SN OVC015
  FM211700 32013G20KT P6SM BKN040
  FM212000 36010KT P6SM SCT040
  FM220700 04005KT P6SM SCT100 BKN250
  FM221400 12005KT P6SM SCT025 OVC080


METAR Board
Radar Display
Forecast Discussion
For situational awareness. Not to be used for flight planning purposes.